createdAt,value
2018-12-17T00:00:34.573Z,47.70
2018-12-17T00:05:30.701Z,57.10
2018-12-17T00:10:26.813Z,45.90
2018-12-17T00:15:23.165Z,50.67
2018-12-17T00:20:19.163Z,42.63
2018-12-17T00:25:15.152Z,47.23
2018-12-17T00:30:11.145Z,49.43
2018-12-17T00:35:07.247Z,51.33
2018-12-17T00:40:05.523Z,57.23
2018-12-17T00:45:01.553Z,48.90
2018-12-17T00:49:57.658Z,57.90
2018-12-17T00:54:53.655Z,56.50
2018-12-17T00:59:49.652Z,57.90
2018-12-17T01:04:45.661Z,58.67
2018-12-17T01:09:41.668Z,64.40
2018-12-17T01:14:37.730Z,51.63
2018-12-17T01:19:33.787Z,53.80
2018-12-17T01:24:29.788Z,59.23
2018-12-17T01:29:25.788Z,54.43
2018-12-17T01:34:21.784Z,58.87
2018-12-17T01:39:17.783Z,51.70
2018-12-17T01:44:13.808Z,70.83
2018-12-17T01:49:09.807Z,51.23
2018-12-17T01:54:05.817Z,45.27
2018-12-17T01:59:01.821Z,52.87
2018-12-17T02:03:57.820Z,69.53
2018-12-17T02:08:53.816Z,61.50
2018-12-17T02:13:49.859Z,60.00
2018-12-17T02:18:45.863Z,54.80
2018-12-17T02:23:41.858Z,56.33
2018-12-17T02:28:37.965Z,62.30
2018-12-17T02:33:33.969Z,55.27
2018-12-17T02:38:29.974Z,56.27
2018-12-17T02:43:25.975Z,53.70
2018-12-17T02:48:21.968Z,53.67
2018-12-17T02:53:18.045Z,49.70
2018-12-17T02:58:14.746Z,40.93
2018-12-17T03:03:10.752Z,42.17
2018-12-17T03:08:06.752Z,51.93
2018-12-17T03:13:02.762Z,37.60
2018-12-17T03:17:58.761Z,43.93
2018-12-17T03:22:54.783Z,43.07
2018-12-17T03:27:52.658Z,42.50
2018-12-17T03:32:55.841Z,60.80
2018-12-17T03:37:51.846Z,41.03
2018-12-17T03:42:47.941Z,45.27
2018-12-17T03:47:43.932Z,41.07
2018-12-17T03:52:39.905Z,44.27
2018-12-17T03:57:38.492Z,40.30
2018-12-17T04:02:34.554Z,44.10
2018-12-17T04:07:30.711Z,33.23
2018-12-17T04:12:26.709Z,37.73
2018-12-17T04:17:22.713Z,36.13
2018-12-17T04:22:18.712Z,40.87
2018-12-17T04:27:14.705Z,35.40
2018-12-17T04:32:10.699Z,46.33
2018-12-17T04:37:06.710Z,36.00
2018-12-17T04:42:02.841Z,37.53
2018-12-17T04:46:58.834Z,34.63
2018-12-17T04:52:01.864Z,30.53
2018-12-17T04:56:57.865Z,30.07
2018-12-17T05:01:53.847Z,38.00
2018-12-17T05:06:49.843Z,35.87
2018-12-17T05:11:45.837Z,35.40
2018-12-17T05:16:41.904Z,34.93
2018-12-17T05:21:37.902Z,34.40
2018-12-17T05:26:34.037Z,28.50
2018-12-17T05:31:30.137Z,33.23
2018-12-17T05:36:26.148Z,30.97
2018-12-17T05:41:22.177Z,30.80
2018-12-17T05:46:18.182Z,39.30
2018-12-17T05:51:14.315Z,33.27
2018-12-17T05:56:10.326Z,29.03
2018-12-17T06:01:06.335Z,29.17
2018-12-17T06:06:02.335Z,30.53
2018-12-17T06:10:58.328Z,26.37
2018-12-17T06:15:54.310Z,22.80
2018-12-17T06:20:51.526Z,25.37
2018-12-17T06:25:47.562Z,36.93
2018-12-17T06:30:43.858Z,27.43
2018-12-17T06:35:39.887Z,29.77
2018-12-17T06:40:35.904Z,27.97
2018-12-17T06:45:31.905Z,27.90
2018-12-17T06:50:27.892Z,25.10
2018-12-17T06:55:23.894Z,22.77
2018-12-17T07:00:20.020Z,29.97
2018-12-17T07:05:16.034Z,22.77
2018-12-17T07:10:12.073Z,23.57
2018-12-17T07:15:08.160Z,26.20
2018-12-17T07:20:05.454Z,23.70
2018-12-17T07:25:01.633Z,26.23
2018-12-17T07:29:57.671Z,22.33
2018-12-17T07:34:53.869Z,25.73
2018-12-17T07:39:49.952Z,26.20
2018-12-17T07:44:45.985Z,25.93
2018-12-17T07:49:42.077Z,25.83
2018-12-17T07:54:38.175Z,28.07
2018-12-17T07:59:35.686Z,33.30
2018-12-17T08:04:32.028Z,28.37
2018-12-17T08:09:28.156Z,21.30
2018-12-17T08:14:24.265Z,24.67
2018-12-17T08:19:20.317Z,29.10
2018-12-17T08:24:16.373Z,34.13
2018-12-17T08:29:12.420Z,20.23
2018-12-17T08:34:08.451Z,36.23
2018-12-17T08:39:05.954Z,25.10
2018-12-17T08:44:02.043Z,34.50
2018-12-17T08:48:58.095Z,20.73
2018-12-17T08:53:54.263Z,28.00
2018-12-17T08:58:50.281Z,27.73
2018-12-17T09:03:46.586Z,21.33
2018-12-17T09:08:42.628Z,18.97
2018-12-17T09:13:38.848Z,16.87
2018-12-17T09:18:34.929Z,18.97
2018-12-17T09:23:31.048Z,12.20
2018-12-17T09:28:27.824Z,18.73
2018-12-17T09:33:23.870Z,18.90
2018-12-17T09:38:19.909Z,12.93
2018-12-17T09:43:15.925Z,14.90
2018-12-17T09:48:11.959Z,14.40
2018-12-17T09:53:09.611Z,14.60
2018-12-17T09:58:08.314Z,16.30
2018-12-17T10:03:05.850Z,20.13
2018-12-17T10:08:04.007Z,19.17
2018-12-17T10:13:00.043Z,16.83
2018-12-17T10:17:56.073Z,13.60
2018-12-17T10:22:52.166Z,12.73
2018-12-17T10:27:51.075Z,14.00
2018-12-17T10:32:47.181Z,10.70
2018-12-17T10:37:43.230Z,14.77
2018-12-17T10:42:39.292Z,14.83
2018-12-17T10:47:35.344Z,20.57
2018-12-17T10:52:38.189Z,13.10
2018-12-17T10:57:35.812Z,20.43
2018-12-17T11:02:32.516Z,24.47
2018-12-17T11:07:29.044Z,21.13
2018-12-17T11:12:27.088Z,16.60
2018-12-17T11:17:23.218Z,32.00
2018-12-17T11:22:19.266Z,23.73
2018-12-17T11:27:15.284Z,18.03
2018-12-17T11:32:11.651Z,13.83
2018-12-17T11:37:07.881Z,19.50
2018-12-17T11:42:05.438Z,22.93
2018-12-17T11:47:01.537Z,8.63
2018-12-17T11:51:57.549Z,8.97
2018-12-17T12:02:30.300Z,9.23
2018-12-17T12:07:26.301Z,11.23
2018-12-17T12:12:22.332Z,11.10
2018-12-17T12:17:18.368Z,14.20
2018-12-17T12:22:14.538Z,13.57
2018-12-17T12:27:10.621Z,10.57
2018-12-17T12:32:06.669Z,29.93
2018-12-17T12:37:02.733Z,18.10
2018-12-17T12:41:58.761Z,8.97
2018-12-17T12:46:54.793Z,11.63
2018-12-17T12:51:50.821Z,8.30
2018-12-17T12:56:46.844Z,9.40
2018-12-17T13:01:42.879Z,11.83
2018-12-17T13:06:38.901Z,18.23
2018-12-17T13:11:34.922Z,14.40
2018-12-17T13:16:30.949Z,12.30
2018-12-17T13:21:26.989Z,10.70
2018-12-17T13:26:23.148Z,11.33
2018-12-17T13:31:19.282Z,10.13
2018-12-17T13:36:15.323Z,15.40
2018-12-17T13:41:11.361Z,10.40
2018-12-17T13:46:07.389Z,10.27
2018-12-17T13:51:09.385Z,12.43
2018-12-17T13:56:05.401Z,12.30
2018-12-17T14:01:01.429Z,11.67
2018-12-17T14:05:57.446Z,8.53
2018-12-17T14:10:53.632Z,9.90
2018-12-17T14:15:51.193Z,14.80
2018-12-17T14:20:53.116Z,14.90
2018-12-17T14:25:49.141Z,9.90
2018-12-17T14:30:45.171Z,11.80
2018-12-17T14:35:47.150Z,9.67
2018-12-17T14:40:43.184Z,17.63
2018-12-17T14:45:39.195Z,10.37
2018-12-17T14:50:35.217Z,9.13
2018-12-17T14:55:31.245Z,18.20
2018-12-17T15:00:27.880Z,11.70
2018-12-17T15:05:47.422Z,11.30
2018-12-17T15:10:43.432Z,20.40
2018-12-17T15:15:39.472Z,29.13
2018-12-17T15:20:35.491Z,27.83
2018-12-17T15:25:31.500Z,20.97
2018-12-17T15:30:27.511Z,26.53
2018-12-17T15:35:23.501Z,21.00
2018-12-17T15:40:19.488Z,20.43
2018-12-17T15:45:15.473Z,24.07
2018-12-17T15:50:11.460Z,20.00
2018-12-17T15:55:07.495Z,21.17
2018-12-17T16:00:06.208Z,24.53
2018-12-17T16:05:02.423Z,28.73
2018-12-17T16:09:58.416Z,23.53
2018-12-17T16:14:54.400Z,28.67
2018-12-17T16:19:50.384Z,28.07
2018-12-17T16:24:46.379Z,36.00
2018-12-17T16:29:42.370Z,27.50
2018-12-17T16:34:38.348Z,33.83
2018-12-17T16:39:34.333Z,28.53
2018-12-17T16:44:30.308Z,38.00
2018-12-17T16:49:26.296Z,34.60
2018-12-17T16:54:22.399Z,40.87
2018-12-17T16:59:18.394Z,28.03
2018-12-17T17:04:14.469Z,27.90
2018-12-17T17:09:10.510Z,28.40
2018-12-17T17:14:06.513Z,30.97
2018-12-17T17:19:02.620Z,31.17
2018-12-17T17:23:58.604Z,31.63
2018-12-17T17:28:54.614Z,38.10
2018-12-17T17:33:50.589Z,34.50
2018-12-17T17:38:46.573Z,40.40
2018-12-17T17:43:49.575Z,32.77
2018-12-17T17:48:45.575Z,34.47
2018-12-17T17:53:48.648Z,41.27
2018-12-17T17:58:45.567Z,51.50
2018-12-17T18:03:41.571Z,42.10
2018-12-17T18:08:37.564Z,51.53
2018-12-17T18:13:33.580Z,63.33
2018-12-17T18:18:29.590Z,50.70
2018-12-17T18:23:25.626Z,49.27
2018-12-17T18:28:23.150Z,46.67
2018-12-17T18:33:19.200Z,48.57
2018-12-17T18:38:15.189Z,45.40
2018-12-17T18:43:11.165Z,59.60
2018-12-17T18:48:07.158Z,43.33
2018-12-17T18:53:03.151Z,59.53
2018-12-17T18:58:01.508Z,52.20
2018-12-17T19:02:57.627Z,63.27
2018-12-17T19:07:53.625Z,48.50
2018-12-17T19:12:49.609Z,43.90
2018-12-17T19:17:45.724Z,45.63
2018-12-17T19:22:41.739Z,42.97
2018-12-17T19:27:39.684Z,48.53
2018-12-17T19:32:40.148Z,43.47
2018-12-17T19:37:33.814Z,46.93
2018-12-17T19:42:29.797Z,50.10
2018-12-17T19:47:25.892Z,45.70
2018-12-17T19:52:21.891Z,51.80
2018-12-17T19:57:17.872Z,47.07
2018-12-17T20:02:14.001Z,54.80
2018-12-17T20:07:10.040Z,57.13
2018-12-17T20:12:06.129Z,49.37
2018-12-17T20:17:03.578Z,65.83
2018-12-17T20:21:59.592Z,52.43
2018-12-17T20:26:55.621Z,52.40
2018-12-17T20:31:51.621Z,52.67
2018-12-17T20:36:47.688Z,41.97
2018-12-17T20:41:43.709Z,46.83
2018-12-17T20:46:39.777Z,44.60
2018-12-17T20:51:35.764Z,43.43
2018-12-17T20:56:31.761Z,40.03
2018-12-17T21:01:27.772Z,49.57
2018-12-17T21:06:23.767Z,55.33
2018-12-17T21:11:19.762Z,46.70
2018-12-17T21:16:15.795Z,55.57
2018-12-17T21:21:11.805Z,45.40
2018-12-17T21:26:07.805Z,51.90
2018-12-17T21:31:03.792Z,46.90
2018-12-17T21:35:59.781Z,44.30
2018-12-17T21:40:55.804Z,43.00
2018-12-17T21:45:51.805Z,53.60
2018-12-17T21:50:47.796Z,53.10
2018-12-17T21:55:43.788Z,50.17
2018-12-17T22:00:39.857Z,50.37
2018-12-17T22:05:35.857Z,48.57
2018-12-17T22:10:33.897Z,54.37
2018-12-17T22:15:29.896Z,57.97
2018-12-17T22:20:25.917Z,52.67
2018-12-17T22:25:21.915Z,61.17
2018-12-17T22:30:18.013Z,56.27
2018-12-17T22:35:14.009Z,55.70
2018-12-17T22:40:10.045Z,51.93
2018-12-17T22:45:06.711Z,55.90
2018-12-17T22:50:03.828Z,51.53
2018-12-17T22:54:59.828Z,50.97
2018-12-17T22:59:55.820Z,46.43
2018-12-17T23:04:51.808Z,56.10
2018-12-17T23:10:00.176Z,52.43
2018-12-17T23:15:08.507Z,53.70
2018-12-17T23:20:04.941Z,46.30
2018-12-17T23:25:01.481Z,57.97
2018-12-17T23:29:57.564Z,59.37
2018-12-17T23:34:53.558Z,58.13
2018-12-17T23:39:49.666Z,50.63
2018-12-17T23:44:45.661Z,55.53
2018-12-17T23:49:41.790Z,46.20
2018-12-17T23:54:37.816Z,51.50
2018-12-17T23:59:33.784Z,40.67
